Terminal Aerodrome Forecast
Issued by NWS

Home | Current Version | Previous Version | Text Only | Print | Product List | Glossary On
Versions: 1 2 3 4 5 6 7 8 9 10 11 12 13
000
FTUS43 KMPX 010532
TAFAXN
TAF
KAXN 010532Z 0106/0206 22008KT P6SM SCT025 BKN050
      TEMPO 0106/0109 BKN015
     FM010900 27005KT P6SM SCT100
     FM011300 28009KT P6SM SCT100
     FM012100 29009G15KT P6SM FEW020=

USA.gov is the U.S. government's official web portal to all federal, state and local government web resources and services.